Time;durP1;ratioP1;P1;durP2;ratioP2;P2;SDS_P1;SDS_P2;PMS_P1;PMS_P2;Temp;Humidity;BMP_temperature;BMP_pressure;BME280_temperature;BME280_humidity;BME280_pressure;Samples;Min_cycle;Max_cycle;Signal;HPM_P1;HPM_P2
2022/11/15 00:00:46;;;;;;;22.00;14.63;;;8.00;99.90;;;;;;5091490;28;20048;-65
2022/11/15 00:03:14;;;;;;;23.05;15.38;;;8.00;99.90;;;;;;5091293;28;20064;-65
2022/11/15 00:05:41;;;;;;;23.85;14.80;;;8.00;99.90;;;;;;5091444;28;20044;-64
2022/11/15 00:08:08;;;;;;;23.27;15.80;;;7.90;99.90;;;;;;5091370;28;20059;-65
2022/11/15 00:10:37;;;;;;;23.50;15.60;;;7.80;99.90;;;;;;5091528;28;20392;-65
2022/11/15 00:13:06;;;;;;;24.42;15.32;;;7.80;99.90;;;;;;5090583;28;20048;-65
2022/11/15 00:15:36;;;;;;;22.92;15.73;;;7.60;99.90;;;;;;5092277;28;20568;-65
2022/11/15 00:18:03;;;;;;;23.02;15.80;;;7.50;99.90;;;;;;5091213;28;20044;-66
2022/11/15 00:20:30;;;;;;;24.33;15.32;;;7.50;99.90;;;;;;5090069;28;20040;-66
2022/11/15 00:22:57;;;;;;;21.85;14.88;;;7.40;99.90;;;;;;5090812;28;20113;-65
2022/11/15 00:25:24;;;;;;;22.95;15.38;;;7.30;99.90;;;;;;5090385;28;20414;-65
2022/11/15 00:27:56;;;;;;;22.05;15.90;;;7.20;99.90;;;;;;5091081;28;20052;-66
2022/11/15 00:30:23;;;;;;;25.95;15.63;;;7.20;99.90;;;;;;5090865;28;20048;-67
2022/11/15 00:32:50;;;;;;;24.70;15.80;;;7.10;99.90;;;;;;5091587;28;20067;-65
2022/11/15 00:35:17;;;;;;;22.80;15.93;;;7.10;99.90;;;;;;5088964;28;20052;-66
2022/11/15 00:37:43;;;;;;;25.52;15.30;;;7.10;99.90;;;;;;5090975;28;20063;-65
2022/11/15 00:40:12;;;;;;;22.40;15.73;;;7.10;99.90;;;;;;5090880;28;20048;-66
2022/11/15 00:42:39;;;;;;;23.33;15.52;;;7.20;99.90;;;;;;5090268;28;20083;-66
2022/11/15 00:45:09;;;;;;;24.90;14.65;;;7.20;99.90;;;;;;5091034;28;20052;-66
2022/11/15 00:47:35;;;;;;;25.50;15.95;;;7.20;99.90;;;;;;5087962;28;20052;-66
2022/11/15 00:50:02;;;;;;;25.23;16.08;;;7.30;99.90;;;;;;5088937;28;20457;-65
2022/11/15 00:52:29;;;;;;;21.63;14.15;;;7.30;99.90;;;;;;5090510;28;20097;-66
2022/11/15 00:54:56;;;;;;;23.73;14.73;;;7.40;99.90;;;;;;5090352;28;20105;-66
2022/11/15 00:57:23;;;;;;;23.60;15.23;;;7.40;99.90;;;;;;5088318;28;20105;-65
2022/11/15 00:59:50;;;;;;;24.70;15.35;;;7.40;99.90;;;;;;5090804;28;20064;-66
2022/11/15 01:02:18;;;;;;;23.15;15.05;;;7.50;99.90;;;;;;5091101;28;20105;-65
2022/11/15 01:04:45;;;;;;;23.40;16.73;;;7.50;99.90;;;;;;5090310;28;20056;-66
2022/11/15 01:07:11;;;;;;;21.15;14.73;;;7.50;99.90;;;;;;5090529;28;20048;-65
2022/11/15 01:09:38;;;;;;;23.23;15.45;;;7.50;99.90;;;;;;5091272;28;20097;-65
2022/11/15 01:12:06;;;;;;;24.45;15.32;;;7.60;99.90;;;;;;5089473;28;20097;-67
2022/11/15 01:14:33;;;;;;;23.08;15.15;;;7.50;99.90;;;;;;5090302;28;20051;-65
2022/11/15 01:17:00;;;;;;;21.90;14.68;;;7.50;99.90;;;;;;5089825;28;20036;-67
2022/11/15 01:19:28;;;;;;;21.75;13.90;;;7.50;99.90;;;;;;5088432;28;20054;-66
2022/11/15 01:21:55;;;;;;;22.60;14.85;;;7.50;99.90;;;;;;5090242;28;20052;-66
2022/11/15 01:24:21;;;;;;;24.33;15.30;;;7.50;99.90;;;;;;5087762;28;20113;-66
2022/11/15 01:26:48;;;;;;;22.25;15.80;;;7.50;99.90;;;;;;5091515;28;20113;-66
2022/11/15 01:29:15;;;;;;;20.42;14.55;;;7.50;99.90;;;;;;5090707;28;20559;-66
2022/11/15 01:31:42;;;;;;;20.50;14.23;;;7.50;99.90;;;;;;5089742;28;20519;-67
2022/11/15 01:34:09;;;;;;;21.02;14.13;;;7.50;99.90;;;;;;5091358;28;20044;-65
2022/11/15 01:36:37;;;;;;;19.95;14.80;;;7.50;99.90;;;;;;5089630;28;20048;-66
2022/11/15 01:39:04;;;;;;;23.23;15.10;;;7.50;99.90;;;;;;5091673;28;20453;-66
2022/11/15 01:41:33;;;;;;;20.95;13.93;;;7.40;99.90;;;;;;5089652;28;20117;-65
2022/11/15 01:44:37;;;;;;;22.90;16.48;;;7.50;99.90;;;;;;5093375;28;20441;-66
2022/11/15 01:47:08;;;;;;;22.95;15.73;;;7.50;99.90;;;;;;5095378;28;20044;-66
2022/11/15 01:49:38;;;;;;;22.48;14.73;;;7.40;99.90;;;;;;5094106;28;20051;-65
2022/11/15 01:52:11;;;;;;;22.98;15.20;;;7.50;99.90;;;;;;5094319;28;20040;-66
2022/11/15 01:54:38;;;;;;;26.48;15.20;;;7.50;99.90;;;;;;5093588;28;20055;-66
2022/11/15 01:57:08;;;;;;;27.13;17.20;;;7.40;99.90;;;;;;5091646;28;20399;-65
2022/11/15 01:59:37;;;;;;;25.75;17.15;;;7.40;99.90;;;;;;5092596;28;20055;-66
2022/11/15 02:02:04;;;;;;;25.05;16.83;;;7.40;99.90;;;;;;5092910;28;20491;-67
2022/11/15 02:04:33;;;;;;;29.00;16.17;;;7.40;99.90;;;;;;5094717;28;20052;-65
2022/11/15 02:07:02;;;;;;;24.45;16.10;;;7.40;99.90;;;;;;5093203;28;20539;-65
2022/11/15 02:09:31;;;;;;;23.48;15.00;;;7.40;99.90;;;;;;5092423;28;20044;-65
2022/11/15 02:11:58;;;;;;;26.63;16.65;;;7.40;99.90;;;;;;5091892;28;20081;-65
2022/11/15 02:14:28;;;;;;;26.63;16.45;;;7.40;99.90;;;;;;5094613;28;20478;-65
2022/11/15 02:17:02;;;;;;;26.73;16.30;;;7.30;99.90;;;;;;5093196;28;20047;-65
2022/11/15 02:19:55;;;;;;;24.40;16.48;;;7.30;99.90;;;;;;5091768;28;20480;-65
2022/11/15 02:22:34;;;;;;;22.38;15.25;;;7.30;99.90;;;;;;5091142;28;20048;-66
2022/11/15 02:25:23;;;;;;;24.75;15.80;;;7.30;99.90;;;;;;5092685;28;20449;-65
2022/11/15 02:28:21;;;;;;;28.80;15.98;;;7.40;99.90;;;;;;5090750;28;20047;-65
2022/11/15 02:30:52;;;;;;;25.48;14.10;;;7.30;99.90;;;;;;5093244;28;20063;-67
2022/11/15 02:33:31;;;;;;;21.92;14.65;;;7.30;99.90;;;;;;5091774;28;20483;-66
2022/11/15 02:36:00;;;;;;;21.92;14.65;;;7.30;99.90;;;;;;5091536;28;20048;-66
2022/11/15 02:38:36;;;;;;;19.95;14.07;;;7.30;99.90;;;;;;5093027;28;20048;-66
2022/11/15 02:41:07;;;;;;;23.70;14.80;;;7.30;99.90;;;;;;5089101;28;20052;-65
2022/11/15 02:43:57;;;;;;;24.40;15.02;;;7.30;99.90;;;;;;5093781;28;20065;-65
2022/11/15 02:49:18;;;;;;;23.67;14.90;;;7.30;99.90;;;;;;5092687;28;20511;-66
2022/11/15 02:51:48;;;;;;;25.95;15.68;;;7.30;99.90;;;;;;5094068;28;20044;-66
2022/11/15 02:54:20;;;;;;;21.98;14.65;;;7.30;99.90;;;;;;5090697;28;20149;-65
2022/11/15 02:56:47;;;;;;;27.77;16.10;;;7.30;99.90;;;;;;5092265;28;20044;-65
2022/11/15 02:59:30;;;;;;;26.02;16.38;;;7.50;99.90;;;;;;5092647;28;20048;-65
2022/11/15 03:02:16;;;;;;;27.88;15.23;;;7.30;99.90;;;;;;5092126;28;20101;-65
2022/11/15 03:04:47;;;;;;;26.27;15.85;;;7.50;99.90;;;;;;5093741;28;20200;-67
2022/11/15 03:07:19;;;;;;;29.48;17.30;;;7.30;99.90;;;;;;5093771;28;20039;-66
2022/11/15 03:09:53;;;;;;;27.15;17.55;;;7.30;99.90;;;;;;5092038;28;20048;-66
2022/11/15 03:12:29;;;;;;;27.83;16.70;;;7.30;99.90;;;;;;5091913;28;20177;-66
2022/11/15 03:15:00;;;;;;;27.73;15.60;;;7.30;99.90;;;;;;5092253;28;20055;-66
2022/11/15 03:17:31;;;;;;;30.42;17.67;;;7.30;99.90;;;;;;5091932;28;20130;-66
2022/11/15 03:20:00;;;;;;;31.02;17.17;;;7.30;99.90;;;;;;5093342;28;20051;-66
2022/11/15 03:22:33;;;;;;;27.77;16.27;;;7.30;99.90;;;;;;5091638;28;20063;-65
2022/11/15 03:25:05;;;;;;;28.15;16.45;;;7.30;99.90;;;;;;5091931;28;20098;-67
2022/11/15 03:27:35;;;;;;;28.67;16.27;;;7.30;99.90;;;;;;5093411;28;20047;-66
2022/11/15 03:30:07;;;;;;;29.95;16.90;;;7.40;99.90;;;;;;5092615;28;20097;-66
2022/11/15 03:32:39;;;;;;;27.90;16.48;;;7.40;99.90;;;;;;5092093;28;20052;-66
2022/11/15 03:35:09;;;;;;;28.75;16.17;;;7.30;99.90;;;;;;5089433;28;20056;-65
2022/11/15 03:37:40;;;;;;;31.27;17.85;;;7.40;99.90;;;;;;5088312;28;20522;-66
2022/11/15 03:40:08;;;;;;;32.97;18.23;;;7.40;99.90;;;;;;5092700;28;20165;-65
2022/11/15 03:42:40;;;;;;;28.33;16.67;;;7.40;99.90;;;;;;5092424;28;20403;-66
2022/11/15 03:45:15;;;;;;;29.05;17.33;;;7.40;99.90;;;;;;5090267;28;20073;-66
2022/11/15 03:47:47;;;;;;;35.10;18.20;;;7.40;99.90;;;;;;5090847;28;20043;-66
2022/11/15 03:50:17;;;;;;;28.88;16.55;;;7.40;99.90;;;;;;5090800;28;20097;-66
2022/11/15 03:52:46;;;;;;;31.30;17.33;;;7.50;99.90;;;;;;5090502;28;20081;-65
2022/11/15 03:55:18;;;;;;;34.65;19.00;;;7.50;99.90;;;;;;5092750;28;20063;-66
2022/11/15 03:57:45;;;;;;;32.15;17.25;;;6.50;99.90;;;;;;5090857;28;20090;-66
2022/11/15 04:00:13;;;;;;;33.25;17.42;;;7.50;99.90;;;;;;5091126;28;20063;-65
2022/11/15 04:02:40;;;;;;;30.23;16.83;;;7.50;99.90;;;;;;5092641;28;20047;-66
2022/11/15 04:05:08;;;;;;;31.30;17.98;;;7.50;99.90;;;;;;5089705;28;20055;-66
2022/11/15 04:07:35;;;;;;;29.65;16.50;;;7.60;99.90;;;;;;5090430;28;20098;-66
2022/11/15 04:10:03;;;;;;;37.10;18.65;;;7.60;99.90;;;;;;5091493;28;20491;-67
2022/11/15 04:12:32;;;;;;;33.05;17.80;;;7.60;99.90;;;;;;5091682;28;20047;-66
2022/11/15 04:15:07;;;;;;;30.92;17.25;;;7.60;99.90;;;;;;5090909;28;20442;-66
2022/11/15 04:17:36;;;;;;;31.80;17.40;;;7.60;99.90;;;;;;5089491;28;20122;-65
2022/11/15 04:25:33;;;;;;;31.33;16.58;;;7.70;99.90;;;;;;5090487;28;20143;-66
2022/11/15 04:28:00;;;;;;;34.85;18.00;;;7.70;99.90;;;;;;5090921;28;20048;-66
2022/11/15 04:30:27;;;;;;;30.10;18.50;;;7.70;99.90;;;;;;5090594;28;20109;-65
2022/11/15 04:32:53;;;;;;;33.00;17.92;;;7.70;99.90;;;;;;5089481;28;20151;-66
2022/11/15 04:35:20;;;;;;;35.60;19.05;;;7.80;99.90;;;;;;5091980;28;20514;-66
2022/11/15 04:37:48;;;;;;;30.52;18.80;;;7.80;99.90;;;;;;5092128;28;20081;-66
2022/11/15 04:40:16;;;;;;;32.13;17.40;;;7.80;99.90;;;;;;5090447;28;20051;-64
2022/11/15 04:42:43;;;;;;;31.30;17.95;;;7.80;99.90;;;;;;5090153;28;20044;-66
2022/11/15 04:45:10;;;;;;;29.85;16.92;;;7.80;99.90;;;;;;5091829;28;20044;-66
2022/11/15 04:47:37;;;;;;;41.40;18.88;;;7.80;99.90;;;;;;5087501;28;20557;-65
2022/11/15 04:50:04;;;;;;;31.77;17.70;;;7.90;99.90;;;;;;5091829;28;20549;-65
2022/11/15 04:52:31;;;;;;;30.67;17.55;;;7.90;99.90;;;;;;5089911;28;20454;-66
2022/11/15 04:55:00;;;;;;;36.45;18.73;;;7.90;99.90;;;;;;5090122;28;20101;-66
2022/11/15 04:57:26;;;;;;;35.17;18.73;;;7.90;99.90;;;;;;5090002;28;20036;-65
2022/11/15 04:59:53;;;;;;;31.05;18.52;;;7.90;99.90;;;;;;5091798;28;20059;-66
2022/11/15 05:02:20;;;;;;;37.03;18.92;;;8.00;99.90;;;;;;5089045;28;20093;-65
2022/11/15 05:04:46;;;;;;;35.70;18.73;;;8.00;99.90;;;;;;5089881;28;20059;-67
2022/11/15 05:07:13;;;;;;;40.03;19.42;;;8.00;99.90;;;;;;5089185;28;20040;-65
2022/11/15 05:09:40;;;;;;;43.53;21.83;;;8.10;99.90;;;;;;5085909;28;20275;-66
2022/11/15 05:12:08;;;;;;;41.40;21.05;;;8.10;99.90;;;;;;5075804;28;20044;-65
2022/11/15 05:14:35;;;;;;;40.28;21.45;;;8.10;99.90;;;;;;5076518;28;20052;-65
2022/11/15 05:17:02;;;;;;;43.42;23.08;;;8.10;99.90;;;;;;5087889;28;21004;-66
2022/11/15 05:19:29;;;;;;;36.25;20.95;;;8.10;99.90;;;;;;5086837;28;20052;-66
2022/11/15 05:21:55;;;;;;;46.08;22.13;;;8.10;99.90;;;;;;5089561;28;20075;-66
2022/11/15 05:24:22;;;;;;;42.90;22.70;;;8.10;99.90;;;;;;5083248;28;20052;-66
2022/11/15 05:26:49;;;;;;;49.22;22.45;;;8.20;99.90;;;;;;5087131;28;20045;-65
2022/11/15 05:29:17;;;;;;;49.70;23.02;;;8.20;99.90;;;;;;5092699;28;20445;-65
2022/11/15 05:31:44;;;;;;;47.88;24.08;;;8.20;99.90;;;;;;5087568;28;20500;-65
2022/11/15 05:34:11;;;;;;;46.53;24.15;;;8.20;99.90;;;;;;5089657;28;20051;-66
2022/11/15 05:36:39;;;;;;;46.05;25.15;;;8.30;99.90;;;;;;5088934;28;20051;-65
2022/11/15 05:39:07;;;;;;;49.63;25.35;;;8.30;99.90;;;;;;5093122;28;20384;-65
2022/11/15 05:41:36;;;;;;;49.83;25.17;;;8.30;99.90;;;;;;5090088;28;20179;-65
2022/11/15 05:44:08;;;;;;;48.15;24.38;;;8.30;99.90;;;;;;5085573;28;20051;-65
2022/11/15 05:46:38;;;;;;;55.38;27.33;;;8.30;99.90;;;;;;5082475;28;20055;-65
2022/11/15 05:49:08;;;;;;;50.72;25.73;;;8.30;99.90;;;;;;5088937;28;20483;-66
2022/11/15 05:51:35;;;;;;;60.70;26.33;;;8.30;99.90;;;;;;5084176;28;20098;-66
2022/11/15 05:54:03;;;;;;;53.85;27.17;;;8.30;99.90;;;;;;5087794;28;20052;-66
2022/11/15 05:56:30;;;;;;;58.00;27.08;;;8.40;99.90;;;;;;5090073;28;20055;-65
2022/11/15 05:58:58;;;;;;;60.13;27.88;;;8.40;99.90;;;;;;5091649;28;20120;-66
2022/11/15 06:01:27;;;;;;;59.28;28.88;;;8.40;99.90;;;;;;5088184;28;20047;-67
2022/11/15 06:03:55;;;;;;;58.00;27.48;;;8.50;99.90;;;;;;5088718;28;20055;-64
2022/11/15 06:06:22;;;;;;;61.88;28.23;;;8.50;99.90;;;;;;5087470;28;20522;-65
2022/11/15 06:08:49;;;;;;;64.32;28.52;;;8.60;99.90;;;;;;5078994;28;20089;-65
2022/11/15 06:11:16;;;;;;;71.18;29.42;;;8.60;99.90;;;;;;5090248;28;20044;-65
2022/11/15 06:13:43;;;;;;;60.65;28.90;;;8.60;99.90;;;;;;5086137;28;20044;-66
2022/11/15 06:16:10;;;;;;;68.22;28.48;;;8.60;99.90;;;;;;5085374;28;20048;-65
2022/11/15 06:18:37;;;;;;;68.07;28.75;;;8.70;99.90;;;;;;5087410;28;20094;-65
2022/11/15 06:21:06;;;;;;;68.85;28.77;;;8.70;99.90;;;;;;5081895;28;20407;-65
2022/11/15 06:23:34;;;;;;;62.00;30.80;;;8.70;99.90;;;;;;5088590;28;20109;-65
2022/11/15 06:26:02;;;;;;;70.88;30.13;;;8.80;99.90;;;;;;5088690;28;20044;-64
2022/11/15 06:28:30;;;;;;;62.45;29.40;;;8.80;99.90;;;;;;5087691;28;20052;-65
2022/11/15 06:30:57;;;;;;;64.25;30.88;;;8.90;99.90;;;;;;5082581;28;20563;-66
2022/11/15 06:33:24;;;;;;;66.00;30.92;;;8.90;99.90;;;;;;5082101;28;20045;-65
2022/11/15 06:35:51;;;;;;;70.28;30.90;;;9.00;99.90;;;;;;5088033;28;20063;-65
2022/11/15 06:38:19;;;;;;;59.72;29.35;;;9.00;99.90;;;;;;5083208;28;20144;-64
2022/11/15 06:40:46;;;;;;;60.92;30.50;;;9.00;99.90;;;;;;5080775;28;20101;-64
2022/11/15 06:43:14;;;;;;;60.47;28.45;;;9.10;99.90;;;;;;5077829;28;20438;-66
2022/11/15 06:45:41;;;;;;;57.70;29.80;;;9.10;99.90;;;;;;5083454;28;20132;-66
2022/11/15 06:48:08;;;;;;;59.22;28.95;;;9.20;99.90;;;;;;5083727;28;20048;-65
2022/11/15 06:50:35;;;;;;;66.07;32.60;;;9.20;99.90;;;;;;5087157;28;20328;-65
2022/11/15 06:53:03;;;;;;;60.72;28.45;;;9.60;99.90;;;;;;5091406;28;20055;-65
2022/11/15 06:55:31;;;;;;;59.28;29.02;;;9.20;99.90;;;;;;5093287;28;20550;-65
2022/11/15 06:57:58;;;;;;;53.22;28.02;;;9.30;99.90;;;;;;5092238;28;20101;-64
2022/11/15 07:00:25;;;;;;;53.70;27.35;;;9.40;99.90;;;;;;5091426;28;20994;-65
2022/11/15 07:02:52;;;;;;;58.85;29.02;;;9.40;99.90;;;;;;5092354;28;20071;-66
2022/11/15 07:05:18;;;;;;;59.15;27.95;;;9.40;99.90;;;;;;5091468;28;20044;-65
2022/11/15 07:07:53;;;;;;;53.50;29.15;;;9.40;99.90;;;;;;5090560;28;20097;-64
2022/11/15 07:10:20;;;;;;;55.17;28.60;;;9.50;99.90;;;;;;5091828;28;20127;-65
2022/11/15 07:12:49;;;;;;;51.97;27.13;;;9.60;99.90;;;;;;5089545;28;20540;-65
2022/11/15 07:15:17;;;;;;;54.38;28.02;;;9.60;99.90;;;;;;5092392;28;20073;-64
2022/11/15 07:17:44;;;;;;;55.05;28.05;;;9.60;99.90;;;;;;5090325;28;20040;-65
2022/11/15 07:20:13;;;;;;;61.30;29.10;;;9.60;99.90;;;;;;5087149;28;20056;-65
2022/11/15 07:22:40;;;;;;;53.55;26.80;;;9.60;99.90;;;;;;5090298;28;20048;-66
2022/11/15 07:25:07;;;;;;;52.67;27.10;;;9.70;99.90;;;;;;5090725;28;20059;-66
2022/11/15 07:27:34;;;;;;;59.28;29.40;;;9.70;99.90;;;;;;5090368;28;20044;-65
2022/11/15 07:30:03;;;;;;;50.47;26.23;;;9.80;99.90;;;;;;5090490;28;20096;-64
2022/11/15 07:32:30;;;;;;;48.83;26.88;;;9.80;99.90;;;;;;5090163;28;20047;-64
2022/11/15 07:34:57;;;;;;;46.53;27.15;;;9.80;99.90;;;;;;5088218;28;20048;-66
2022/11/15 07:37:24;;;;;;;56.40;25.80;;;9.80;99.90;;;;;;5090566;28;20089;-64
2022/11/15 07:39:51;;;;;;;50.50;26.92;;;9.80;99.90;;;;;;5090606;28;20098;-65
2022/11/15 07:45:03;;;;;;;47.90;26.60;;;9.90;99.90;;;;;;5090772;28;20097;-65
2022/11/15 07:47:30;;;;;;;51.67;25.75;;;10.00;99.90;;;;;;5090211;28;20138;-65
2022/11/15 07:49:57;;;;;;;43.88;24.83;;;10.00;99.90;;;;;;5089483;28;20047;-65
2022/11/15 07:52:24;;;;;;;50.90;25.60;;;10.00;99.90;;;;;;5091192;28;20416;-66
2022/11/15 07:54:51;;;;;;;45.22;24.90;;;10.10;99.90;;;;;;5091244;28;20059;-65
2022/11/15 07:57:18;;;;;;;43.13;22.65;;;10.10;99.90;;;;;;5087742;28;20048;-64
2022/11/15 07:59:44;;;;;;;41.33;24.58;;;10.20;99.90;;;;;;5090529;28;20048;-64
2022/11/15 08:02:13;;;;;;;43.30;24.77;;;10.20;99.90;;;;;;5090649;28;20048;-64
2022/11/15 08:05:01;;;;;;;45.17;23.50;;;10.20;99.90;;;;;;5087886;28;20105;-65
2022/11/15 08:07:30;;;;;;;39.40;22.30;;;10.20;99.90;;;;;;5090566;28;20051;-65
2022/11/15 08:09:56;;;;;;;44.60;22.65;;;10.30;99.90;;;;;;5092184;28;20045;-65
2022/11/15 08:12:23;;;;;;;43.60;23.35;;;10.30;99.90;;;;;;5088366;28;20183;-65
2022/11/15 08:14:50;;;;;;;44.40;22.58;;;10.30;99.90;;;;;;5088712;28;20052;-64
2022/11/15 08:17:19;;;;;;;42.17;22.80;;;10.40;99.90;;;;;;5091102;28;20101;-65
2022/11/15 08:19:45;;;;;;;34.03;20.88;;;10.40;99.90;;;;;;5090716;28;20052;-65
2022/11/15 08:22:12;;;;;;;36.03;20.08;;;10.50;99.90;;;;;;5091024;28;20052;-66
2022/11/15 08:24:39;;;;;;;39.85;21.27;;;10.50;99.90;;;;;;5089968;28;20048;-66
2022/11/15 08:27:14;;;;;;;36.97;19.65;;;10.60;99.90;;;;;;5090363;28;20051;-66
2022/11/15 08:29:42;;;;;;;41.38;21.75;;;10.60;99.90;;;;;;5089823;28;20040;-66
2022/11/15 08:32:10;;;;;;;37.45;21.70;;;10.70;99.90;;;;;;5089460;28;20051;-66
2022/11/15 08:34:39;;;;;;;31.35;18.83;;;10.80;99.90;;;;;;5090297;28;20391;-65
2022/11/15 08:37:06;;;;;;;29.60;19.63;;;10.80;99.90;;;;;;5091998;28;20047;-65
2022/11/15 08:39:33;;;;;;;30.73;20.13;;;10.80;99.90;;;;;;5091006;28;20059;-64
2022/11/15 08:42:00;;;;;;;28.23;19.40;;;10.80;99.90;;;;;;5089553;28;20052;-64
2022/11/15 08:44:27;;;;;;;31.45;19.33;;;10.90;99.90;;;;;;5090706;28;20411;-65
2022/11/15 08:46:54;;;;;;;35.67;19.10;;;10.90;99.90;;;;;;5090230;28;20052;-64
2022/11/15 08:49:21;;;;;;;28.85;17.95;;;11.10;99.90;;;;;;5090321;28;20097;-64
2022/11/15 08:51:49;;;;;;;28.98;17.73;;;11.00;99.90;;;;;;5092415;28;20517;-65
2022/11/15 08:54:16;;;;;;;27.58;17.23;;;11.00;99.90;;;;;;5091913;28;20063;-65
2022/11/15 08:56:43;;;;;;;26.02;16.73;;;11.10;99.90;;;;;;5091313;28;20060;-65
2022/11/15 08:59:10;;;;;;;29.92;17.48;;;11.10;99.90;;;;;;5095063;28;20047;-65
2022/11/15 09:01:37;;;;;;;30.13;18.33;;;11.20;99.90;;;;;;5094679;28;20503;-66
2022/11/15 09:04:04;;;;;;;28.90;17.95;;;11.20;99.90;;;;;;5094226;28;20040;-65
2022/11/15 09:06:31;;;;;;;26.52;16.88;;;11.30;99.90;;;;;;5095530;28;20551;-65
2022/11/15 09:09:01;;;;;;;28.52;16.70;;;11.30;99.90;;;;;;5094902;28;20047;-64
2022/11/15 09:11:28;;;;;;;30.42;16.48;;;11.40;99.90;;;;;;5092406;28;20097;-65
2022/11/15 09:13:55;;;;;;;23.58;15.82;;;11.40;99.90;;;;;;5094036;28;20094;-65
2022/11/15 09:16:22;;;;;;;24.67;15.85;;;11.40;99.90;;;;;;5091998;28;20048;-65
2022/11/15 09:18:49;;;;;;;24.10;15.35;;;11.50;99.90;;;;;;5094772;28;20093;-65
2022/11/15 09:21:16;;;;;;;24.75;15.07;;;11.70;99.90;;;;;;5091327;28;20047;-65
2022/11/15 09:23:43;;;;;;;25.33;15.00;;;11.80;99.90;;;;;;5095029;28;20052;-65
2022/11/15 09:26:11;;;;;;;20.40;14.10;;;11.80;99.90;;;;;;5093473;28;20522;-65
2022/11/15 09:28:41;;;;;;;21.30;14.45;;;11.80;99.90;;;;;;5088334;28;20052;-65
2022/11/15 09:31:09;;;;;;;21.67;13.98;;;11.80;99.90;;;;;;5091807;28;20059;-66
2022/11/15 09:33:36;;;;;;;21.00;14.45;;;11.80;99.90;;;;;;5091973;28;20479;-65
2022/11/15 09:36:04;;;;;;;24.85;15.30;;;11.90;99.90;;;;;;5093328;28;20434;-66
2022/11/15 09:38:31;;;;;;;25.23;14.38;;;11.90;99.90;;;;;;5093503;28;20040;-64
2022/11/15 09:41:35;;;;;;;21.92;14.20;;;11.90;99.90;;;;;;5093866;28;20055;-66
2022/11/15 09:44:26;;;;;;;20.50;13.68;;;11.90;99.90;;;;;;5092394;28;20543;-66
2022/11/15 09:47:02;;;;;;;20.48;12.93;;;11.90;99.90;;;;;;5090625;28;20449;-64
2022/11/15 09:49:32;;;;;;;20.63;13.30;;;11.90;99.90;;;;;;5093385;28;20040;-64
2022/11/15 09:51:59;;;;;;;20.37;13.57;;;11.90;99.90;;;;;;5093595;28;20060;-65
2022/11/15 09:54:31;;;;;;;22.50;12.43;;;11.90;99.90;;;;;;5092518;28;20385;-66
2022/11/15 09:57:06;;;;;;;22.15;13.00;;;12.00;99.90;;;;;;5090629;28;20094;-65
2022/11/15 09:59:47;;;;;;;19.83;13.07;;;12.00;99.90;;;;;;5090618;28;20070;-65
2022/11/15 10:02:30;;;;;;;22.20;12.90;;;12.00;99.90;;;;;;5093103;28;20507;-65
2022/11/15 10:05:00;;;;;;;22.23;13.77;;;12.10;99.90;;;;;;5089808;28;20105;-66
2022/11/15 10:07:31;;;;;;;18.83;12.60;;;12.00;99.90;;;;;;5093780;28;20052;-66
2022/11/15 10:10:05;;;;;;;17.65;12.23;;;12.10;99.90;;;;;;5093195;28;20437;-66
2022/11/15 10:12:32;;;;;;;20.40;12.65;;;12.10;99.90;;;;;;5091763;28;20056;-66
2022/11/15 10:15:03;;;;;;;21.30;12.63;;;12.10;99.90;;;;;;5093261;28;20043;-66
2022/11/15 10:17:56;;;;;;;19.05;12.63;;;12.10;99.90;;;;;;5092523;28;20109;-66
2022/11/15 10:20:26;;;;;;;19.17;12.77;;;12.10;99.90;;;;;;5091279;28;20048;-65
2022/11/15 10:22:56;;;;;;;17.67;12.07;;;12.10;99.90;;;;;;5092668;28;20097;-66
2022/11/15 10:25:26;;;;;;;23.58;12.68;;;12.20;99.90;;;;;;5089914;28;20504;-65
2022/11/15 10:27:58;;;;;;;21.33;12.35;;;12.20;99.90;;;;;;5091664;28;20507;-65
2022/11/15 10:30:34;;;;;;;18.67;11.50;;;12.20;99.90;;;;;;5093527;28;20044;-65
2022/11/15 10:33:12;;;;;;;21.48;12.65;;;12.20;99.90;;;;;;5090953;28;20044;-65
2022/11/15 10:35:39;;;;;;;18.60;11.02;;;12.20;99.90;;;;;;5091429;28;20052;-66
2022/11/15 10:38:08;;;;;;;19.25;12.05;;;12.20;99.90;;;;;;5092911;28;20479;-66
2022/11/15 10:40:36;;;;;;;16.10;10.88;;;12.20;99.90;;;;;;5092422;28;20044;-64
2022/11/15 10:43:17;;;;;;;22.55;13.05;;;12.30;99.90;;;;;;5092709;28;20047;-65
2022/11/15 10:45:46;;;;;;;20.95;12.25;;;12.20;99.90;;;;;;5092192;28;20093;-65
2022/11/15 10:48:23;;;;;;;20.23;12.25;;;12.30;99.90;;;;;;5092327;28;20048;-65
2022/11/15 10:50:53;;;;;;;20.50;12.13;;;12.30;99.90;;;;;;5090363;28;20076;-66
2022/11/15 10:53:28;;;;;;;18.02;10.82;;;12.30;99.90;;;;;;5092496;28;20048;-66
2022/11/15 10:55:58;;;;;;;19.73;11.27;;;12.30;99.90;;;;;;5089500;28;20055;-65
2022/11/15 10:58:34;;;;;;;15.95;10.85;;;12.30;99.90;;;;;;5093219;28;20055;-66
2022/11/15 11:01:13;;;;;;;15.13;10.85;;;12.30;99.90;;;;;;5092213;28;20047;-65
2022/11/15 11:03:41;;;;;;;15.43;10.90;;;12.40;99.90;;;;;;5089537;28;20055;-64
2022/11/15 11:06:11;;;;;;;16.50;11.80;;;12.50;99.90;;;;;;5091252;28;20825;-65
2022/11/15 11:08:39;;;;;;;16.63;11.57;;;12.50;99.90;;;;;;5091840;28;20093;-64
2022/11/15 11:11:08;;;;;;;16.35;11.25;;;12.50;99.90;;;;;;5093244;28;20044;-66
2022/11/15 11:13:37;;;;;;;20.73;12.18;;;12.60;99.90;;;;;;5088135;28;20056;-66
2022/11/15 11:16:24;;;;;;;18.00;12.00;;;12.60;99.90;;;;;;5090230;28;20044;-65
2022/11/15 11:19:01;;;;;;;17.48;10.82;;;12.70;99.90;;;;;;5090652;28;20044;-66
2022/11/15 11:21:40;;;;;;;21.63;11.68;;;12.70;99.90;;;;;;5092312;28;20052;-66
2022/11/15 11:24:14;;;;;;;20.25;10.43;;;12.90;99.90;;;;;;5091625;28;20059;-66
2022/11/15 11:26:46;;;;;;;16.70;10.57;;;13.00;99.90;;;;;;5092747;28;20044;-64
2022/11/15 11:29:28;;;;;;;15.52;9.95;;;13.10;99.90;;;;;;5079567;28;20051;-64
2022/11/15 11:32:04;;;;;;;20.88;11.00;;;13.10;99.90;;;;;;5080316;28;20063;-65
2022/11/15 11:34:44;;;;;;;14.30;10.05;;;13.10;99.90;;;;;;5086411;28;20047;-65
2022/11/15 11:37:13;;;;;;;;;;;13.20;99.90;;;;;;5087224;28;20136;-65
2022/11/15 11:39:49;;;;;;;13.55;9.32;;;13.20;99.90;;;;;;5082800;28;20394;-65
2022/11/15 11:42:25;;;;;;;14.70;9.55;;;13.30;99.90;;;;;;5083891;28;20052;-65
2022/11/15 11:45:01;;;;;;;15.55;9.40;;;13.70;99.90;;;;;;5086497;28;20044;-66
2022/11/15 11:47:34;;;;;;;13.55;9.50;;;14.50;99.90;;;;;;5087099;28;20449;-66
2022/11/15 11:50:06;;;;;;;14.27;8.48;;;15.50;99.90;;;;;;5085254;28;20076;-66
2022/11/15 11:52:40;;;;;;;12.25;9.02;;;16.00;99.90;;;;;;5082796;28;20113;-65
2022/11/15 11:55:15;;;;;;;12.18;7.50;;;16.10;99.90;;;;;;5083547;28;20491;-65
2022/11/15 11:57:49;;;;;;;13.50;8.93;;;16.50;99.90;;;;;;5089194;28;20079;-64
2022/11/15 12:00:20;;;;;;;12.23;6.45;;;16.70;99.90;;;;;;5082282;28;20044;-64
2022/11/15 12:03:00;;;;;;;9.98;7.45;;;16.60;99.90;;;;;;5083752;28;20423;-65
2022/11/15 12:05:33;;;;;;;8.60;6.10;;;16.30;99.90;;;;;;5085887;28;20545;-65
2022/11/15 12:08:09;;;;;;;8.38;5.75;;;15.70;99.90;;;;;;5086109;28;20415;-65
2022/11/15 12:10:36;;;;;;;8.80;4.07;;;15.40;99.90;;;;;;5089434;28;20044;-65
2022/11/15 12:13:08;;;;;;;5.47;3.70;;;15.30;99.90;;;;;;5090012;28;20408;-66
2022/11/15 12:15:42;;;;;;;7.30;3.55;;;15.40;99.90;;;;;;5089455;28;20059;-65
2022/11/15 12:18:15;;;;;;;7.60;3.75;;;15.70;99.90;;;;;;5087965;28;20097;-65
2022/11/15 12:20:50;;;;;;;6.35;3.63;;;15.80;99.90;;;;;;5090603;28;20051;-65
2022/11/15 12:23:24;;;;;;;8.88;3.33;;;15.60;99.90;;;;;;5091940;28;20055;-66
2022/11/15 12:25:55;;;;;;;7.47;2.97;;;16.00;99.90;;;;;;5090446;28;20406;-65
2022/11/15 12:28:32;;;;;;;5.65;3.53;;;16.00;99.90;;;;;;5091266;28;20411;-65
2022/11/15 12:31:06;;;;;;;6.93;3.38;;;15.90;99.90;;;;;;5090464;28;20147;-66
2022/11/15 12:33:37;;;;;;;5.43;3.00;;;15.50;99.90;;;;;;5091099;28;20044;-66
2022/11/15 12:36:09;;;;;;;4.88;2.63;;;15.40;99.90;;;;;;5090983;28;20483;-64
2022/11/15 12:38:54;;;;;;;5.75;2.83;;;15.40;99.90;;;;;;5090813;28;20506;-66
2022/11/15 12:41:23;;;;;;;5.45;2.15;;;15.40;99.90;;;;;;5090533;28;20052;-66
2022/11/15 12:43:50;;;;;;;5.63;2.20;;;15.20;99.90;;;;;;5089544;28;20044;-66
2022/11/15 12:46:37;;;;;;;4.72;2.28;;;15.00;99.90;;;;;;5089018;28;20565;-65
2022/11/15 12:49:11;;;;;;;3.42;2.10;;;14.90;99.90;;;;;;5075402;28;20487;-66
2022/11/15 12:52:06;;;;;;;5.85;2.67;;;15.00;99.90;;;;;;5088381;28;20052;-66
2022/11/15 12:55:00;;;;;;;6.07;2.22;;;15.60;99.90;;;;;;5088893;28;20048;-66
2022/11/15 12:57:39;;;;;;;5.82;2.25;;;16.00;99.90;;;;;;5090409;28;20048;-66
2022/11/15 13:00:43;;;;;;;3.85;2.15;;;15.80;99.90;;;;;;5090073;28;20047;-64
2022/11/15 13:03:19;;;;;;;5.85;1.88;;;15.70;99.90;;;;;;5090399;28;20044;-65